Glade Hill, Virginia
Current Conditions -  °F | °C
As of 3:54 AM on Saturday 25 Oct 2014 (Local Time) from KROA Reporting Station
Clear Clear  
Wind Chill:   Ceiling: Unl
Heat Index:   Visibility: 10mi
Dew Point:   Wind: 7mph
Humidity: 74%   Direction: 290°WNW
Pressure: 30.04"   Gusts: NA
Location:  37.0073°N, 79.7681°W
Report Text: KROA 250754Z 29006KT 10SM CLR 07/03 A3004 RMK AO2 SLP167 T00720028
Loading
Personal Weather Stations






























Interactive Weather Map
Tropical Storm Tracking
New forecast layout! Learn more

10-Day Weather Forecast

Advertisements
Track Severe Weather on mobile